Time;durP1;ratioP1;P1;durP2;ratioP2;P2;SDS_P1;SDS_P2;PMS_P1;PMS_P2;Temp;Humidity;BMP_temperature;BMP_pressure;BME280_temperature;BME280_humidity;BME280_pressure;Samples;Min_cycle;Max_cycle;Signal;HPM_P1;HPM_P2
2022/12/26 00:00:59;;;;;;;21.65;9.15;;;;;;;7.70;100.00;99209.81;4368490;32;20113;-96
2022/12/26 00:03:29;;;;;;;17.92;8.40;;;;;;;7.64;100.00;99217.13;4381136;32;20102;-96
2022/12/26 00:05:56;;;;;;;15.57;8.18;;;;;;;7.71;100.00;99217.53;4381466;32;20086;-96
2022/12/26 00:08:23;;;;;;;14.05;7.37;;;;;;;7.64;100.00;99224.97;4380685;32;20719;-95
2022/12/26 00:10:51;;;;;;;18.87;7.75;;;;;;;7.70;100.00;99228.06;4381331;32;20176;-96
2022/12/26 00:13:18;;;;;;;19.85;9.10;;;;;;;7.64;100.00;99219.75;4380894;32;20122;-96
2022/12/26 00:16:14;;;;;;;21.95;8.82;;;;;;;7.63;100.00;99218.06;4383083;32;20091;-96
2022/12/26 00:18:42;;;;;;;20.50;8.35;;;;;;;7.59;100.00;99211.41;4381045;32;20643;-95
2022/12/26 00:21:12;;;;;;;21.40;8.50;;;;;;;7.61;100.00;99217.31;4368643;32;20130;-96
2022/12/26 00:23:40;;;;;;;23.10;8.95;;;;;;;7.51;100.00;99218.94;4381189;32;20158;-96
2022/12/26 00:26:09;;;;;;;23.10;8.38;;;;;;;7.45;100.00;99209.75;4368260;32;20387;-95
2022/12/26 00:28:37;;;;;;;19.15;8.65;;;;;;;7.50;100.00;99216.44;4380658;32;20082;-96
2022/12/26 00:31:07;;;;;;;29.40;9.15;;;;;;;7.44;100.00;99208.06;4380899;32;20094;-96
2022/12/26 00:33:35;;;;;;;25.73;9.10;;;;;;;7.49;100.00;99210.34;4394493;32;20400;-96
2022/12/26 00:36:08;;;;;;;23.98;10.43;;;;;;;7.44;100.00;99215.06;4368747;32;20141;-96
2022/12/26 00:38:37;;;;;;;17.67;8.95;;;;;;;7.41;100.00;99208.28;4394570;32;20083;-96
2022/12/26 00:41:05;;;;;;;21.95;8.70;;;;;;;7.39;100.00;99219.78;4380521;32;20114;-96
2022/12/26 00:43:32;;;;;;;27.05;9.77;;;;;;;7.37;100.00;99219.03;4368228;32;20123;-96
2022/12/26 00:46:00;;;;;;;19.75;9.82;;;;;;;7.27;100.00;99224.06;4367890;32;20161;-96
2022/12/26 00:48:28;;;;;;;23.75;9.68;;;;;;;7.31;100.00;99222.87;4367964;32;20091;-96
2022/12/26 00:50:55;;;;;;;20.50;9.65;;;;;;;7.24;100.00;99227.69;4380695;32;20482;-96
2022/12/26 00:53:23;;;;;;;20.62;10.30;;;;;;;7.31;100.00;99228.09;4380471;32;20123;-96
2022/12/26 00:55:51;;;;;;;19.40;9.43;;;;;;;7.27;100.00;99227.50;4380333;32;20789;-96
2022/12/26 00:58:19;;;;;;;22.10;9.32;;;;;;;7.27;100.00;99216.25;4380523;32;20144;-96
2022/12/26 01:00:47;;;;;;;22.62;9.70;;;;;;;7.22;100.00;99219.16;4380421;32;20106;-96
2022/12/26 01:03:15;;;;;;;22.25;9.38;;;;;;;7.19;100.00;99219.38;4367826;32;20110;-96
2022/12/26 01:05:44;;;;;;;20.08;10.55;;;;;;;7.26;100.00;99220.59;4380151;32;20456;-96
2022/12/26 01:08:11;;;;;;;22.70;9.00;;;;;;;7.31;100.00;99216.84;4380608;32;20109;-96
2022/12/26 01:10:50;;;;;;;20.05;8.93;;;;;;;7.26;100.00;99215.37;4381664;32;20106;-95
2022/12/26 01:13:17;;;;;;;22.27;10.02;;;;;;;7.24;100.00;99216.44;4380510;32;20133;-95
2022/12/26 01:15:52;;;;;;;20.17;9.80;;;;;;;7.26;100.00;99215.37;4367432;32;20094;-96
2022/12/26 01:18:20;;;;;;;23.73;9.75;;;;;;;7.17;100.00;99216.00;4380304;32;20116;-96
2022/12/26 01:20:48;;;;;;;21.40;9.73;;;;;;;7.25;100.00;99212.88;4382038;32;20106;-96
2022/12/26 01:23:15;;;;;;;21.35;9.48;;;;;;;7.24;100.00;99211.25;4382602;32;20454;-96
2022/12/26 01:25:43;;;;;;;23.40;10.32;;;;;;;7.29;100.00;99211.75;4381995;32;20495;-96
2022/12/26 01:28:30;;;;;;;19.45;9.20;;;;;;;7.25;100.00;99212.88;4384313;32;20086;-95
2022/12/26 01:31:04;;;;;;;20.85;9.43;;;;;;;7.28;100.00;99208.31;4381963;32;20106;-96
2022/12/26 01:33:31;;;;;;;20.92;10.18;;;;;;;7.26;100.00;99199.75;4382194;32;20179;-96
2022/12/26 01:35:59;;;;;;;19.83;9.95;;;;;;;7.26;100.00;99201.53;4394376;32;20779;-96
2022/12/26 01:38:26;;;;;;;23.65;10.45;;;;;;;7.16;100.00;99192.66;4382114;32;20090;-96
2022/12/26 01:43:53;;;;;;;25.48;11.30;;;;;;;7.21;100.00;99191.44;4371372;32;20236;-96
2022/12/26 01:46:25;;;;;;;22.58;10.77;;;;;;;7.23;100.00;99188.72;4381933;32;20090;-96
2022/12/26 01:48:54;;;;;;;24.85;10.23;;;;;;;7.14;100.00;99184.13;4382011;32;20091;-95
2022/12/26 01:51:23;;;;;;;21.17;9.90;;;;;;;7.16;100.00;99183.09;4395562;32;20111;-96
2022/12/26 01:53:53;;;;;;;24.20;10.98;;;;;;;7.10;100.00;99183.50;4369484;32;20168;-96
2022/12/26 01:56:26;;;;;;;21.92;10.68;;;;;;;7.15;100.00;99176.22;4369413;32;20094;-96
2022/12/26 01:58:59;;;;;;;20.10;10.43;;;;;;;7.03;100.00;99169.25;4395551;32;20094;-96
2022/12/26 02:01:30;;;;;;;23.87;11.15;;;;;;;7.06;100.00;99166.44;4369761;32;20435;-95
2022/12/26 02:06:44;;;;;;;26.70;10.38;;;;;;;6.95;100.00;99168.91;4383948;32;20207;-96
2022/12/26 02:09:12;;;;;;;25.30;10.80;;;;;;;6.98;100.00;99172.16;4382033;32;20447;-96
2022/12/26 02:11:42;;;;;;;26.08;10.60;;;;;;;6.92;100.00;99165.59;4382078;32;20172;-96
2022/12/26 02:14:10;;;;;;;21.67;11.07;;;;;;;6.85;100.00;99168.72;4381971;32;20115;-96
2022/12/26 02:16:38;;;;;;;29.63;11.07;;;;;;;6.81;100.00;99164.66;4369455;32;20443;-96
2022/12/26 02:19:23;;;;;;;23.67;11.02;;;;;;;6.92;100.00;99160.38;4369577;32;20083;-96
2022/12/26 02:22:21;;;;;;;22.23;9.88;;;;;;;6.93;100.00;99161.19;4369494;32;20780;-96
2022/12/26 02:25:10;;;;;;;29.73;12.18;;;;;;;6.89;100.00;99160.59;4395422;32;20120;-96
2022/12/26 02:28:00;;;;;;;26.92;11.40;;;;;;;6.81;100.00;99162.03;4395184;32;20086;-96
2022/12/26 02:30:32;;;;;;;24.25;11.02;;;;;;;6.54;100.00;99170.75;4369369;32;20112;-96
2022/12/26 02:33:05;;;;;;;22.37;10.52;;;;;;;6.63;100.00;99174.50;4381715;32;20197;-95
2022/12/26 02:35:54;;;;;;;20.65;11.52;;;;;;;6.72;100.00;99161.72;4395530;32;20561;-95
2022/12/26 02:38:35;;;;;;;27.67;11.10;;;;;;;6.84;100.00;99147.03;4369390;32;20391;-95
2022/12/26 02:41:02;;;;;;;23.30;10.57;;;;;;;6.78;100.00;99144.84;4381565;32;20132;-96
2022/12/26 02:43:38;;;;;;;24.10;11.70;;;;;;;6.85;100.00;99151.31;4369226;32;20165;-95
2022/12/26 02:49:21;;;;;;;22.40;11.15;;;;;;;6.80;100.00;99142.13;4383583;32;20120;-96
2022/12/26 03:15:10;;;;;;;28.30;11.82;;;;;;;6.74;100.00;99119.97;4395167;32;20078;-96
2022/12/26 03:17:41;;;;;;;25.00;12.15;;;;;;;6.69;100.00;99119.44;4369156;32;20440;-95
2022/12/26 03:20:27;;;;;;;26.23;11.35;;;;;;;6.75;100.00;99116.41;4368862;32;20111;-96
2022/12/26 03:23:09;;;;;;;30.48;12.25;;;;;;;6.75;100.00;99117.25;4369220;32;20128;-95
2022/12/26 03:28:46;;;;;;;26.80;11.12;;;;;;;6.75;100.00;99129.44;4310942;33;20126;-96
2022/12/26 03:31:14;;;;;;;31.80;12.35;;;;;;;6.57;100.00;99129.75;4333110;33;20127;-96
2022/12/26 03:36:53;;;;;;;21.48;11.68;;;;;;;6.36;100.00;99136.38;4333191;33;20088;-95
2022/12/26 04:20:44;;;;;;;27.17;12.30;;;;;;;5.66;100.00;99152.94;4322583;33;20087;-96
2022/12/26 04:46:23;;;;;;;26.85;12.70;;;;;;;5.08;100.00;99155.59;4332834;33;20115;-96
2022/12/26 04:51:38;;;;;;;31.35;14.30;;;;;;;5.03;100.00;99155.06;4332646;33;20107;-96
2022/12/26 04:54:06;;;;;;;27.23;13.30;;;;;;;4.94;100.00;99147.81;4320932;33;20147;-96
2022/12/26 04:56:34;;;;;;;28.20;12.02;;;;;;;4.94;100.00;99148.66;4340939;32;20095;-96
2022/12/26 04:59:01;;;;;;;24.70;12.55;;;;;;;4.92;100.00;99154.84;4369595;32;20538;-95
2022/12/26 05:09:52;;;;;;;28.75;12.98;;;;;;;4.50;100.00;99149.53;4384413;32;20126;-96
2022/12/26 05:12:20;;;;;;;29.77;11.80;;;;;;;4.43;100.00;99148.19;4394743;32;20122;-96
2022/12/26 05:14:47;;;;;;;25.88;11.65;;;;;;;4.33;100.00;99147.91;4369973;32;20098;-96
2022/12/26 05:31:14;;;;;;;29.58;13.00;;;;;;;4.49;100.00;99155.63;4394752;32;20721;-96
2022/12/26 05:36:38;;;;;;;30.70;15.10;;;;;;;4.46;100.00;99149.78;4381650;32;20733;-96
2022/12/26 05:39:06;;;;;;;26.58;13.50;;;;;;;4.38;100.00;99145.88;4382359;32;20518;-96
2022/12/26 05:41:34;;;;;;;28.10;14.05;;;;;;;4.40;100.00;99141.44;4369558;32;20106;-95
2022/12/26 05:44:01;;;;;;;29.37;13.68;;;;;;;4.38;100.00;99140.69;4369739;32;20184;-96
2022/12/26 05:46:28;;;;;;;25.75;13.35;;;;;;;4.47;100.00;99138.47;4382078;32;20530;-96
2022/12/26 05:48:56;;;;;;;32.17;14.87;;;;;;;4.36;100.00;99144.28;4369375;32;20090;-96
2022/12/26 05:51:23;;;;;;;26.30;14.38;;;;;;;4.37;100.00;99139.00;4381999;32;20468;-96
2022/12/26 05:53:51;;;;;;;29.05;13.73;;;;;;;4.35;100.00;99148.66;4382017;32;20125;-96
2022/12/26 05:56:19;;;;;;;30.30;13.52;;;;;;;4.37;100.00;99149.38;4382068;32;20098;-96
2022/12/26 05:58:47;;;;;;;26.83;13.55;;;;;;;4.32;100.00;99146.22;4381879;32;20105;-96
2022/12/26 06:01:18;;;;;;;24.95;13.13;;;;;;;4.37;100.00;99136.41;4381864;32;20474;-96
2022/12/26 06:03:51;;;;;;;32.03;12.82;;;;;;;4.33;100.00;99140.13;4394366;32;20149;-96
2022/12/26 06:06:19;;;;;;;30.12;14.87;;;;;;;4.27;100.00;99140.47;4381678;32;20444;-96
2022/12/26 06:08:48;;;;;;;29.75;13.48;;;;;;;4.17;100.00;99147.13;4382133;32;20081;-96
2022/12/26 06:11:16;;;;;;;33.15;15.38;;;;;;;4.22;100.00;99140.75;4381876;32;20785;-95
2022/12/26 06:13:43;;;;;;;34.78;15.35;;;;;;;4.25;100.00;99137.97;4382028;32;20137;-95
2022/12/26 06:16:13;;;;;;;30.15;14.25;;;;;;;4.25;100.00;99140.56;4381832;32;20108;-96
2022/12/26 06:18:41;;;;;;;30.85;14.65;;;;;;;4.22;100.00;99145.09;4369525;32;20432;-96
2022/12/26 06:21:11;;;;;;;31.27;13.95;;;;;;;4.08;100.00;99143.28;4382122;32;20133;-96
2022/12/26 06:23:39;;;;;;;26.33;13.57;;;;;;;4.03;100.00;99138.34;4382108;32;20184;-96
2022/12/26 06:26:08;;;;;;;29.30;12.60;;;;;;;3.98;100.00;99142.97;4381717;32;20121;-96
2022/12/26 06:28:36;;;;;;;25.73;12.55;;;;;;;3.88;100.00;99134.88;4369477;32;20090;-96
2022/12/26 06:31:09;;;;;;;28.90;13.77;;;;;;;3.79;100.00;99131.97;4369531;32;20102;-96
2022/12/26 06:33:37;;;;;;;33.45;15.15;;;;;;;3.77;100.00;99126.88;4395358;32;20496;-95
2022/12/26 06:36:07;;;;;;;31.65;13.90;;;;;;;3.73;100.00;99131.38;4356929;32;20156;-96
2022/12/26 06:38:34;;;;;;;26.48;13.00;;;;;;;3.79;100.00;99124.19;4356987;32;20161;-96
2022/12/26 06:41:06;;;;;;;28.15;13.45;;;;;;;3.78;100.00;99123.34;4369207;32;20153;-96
2022/12/26 06:43:34;;;;;;;29.27;13.62;;;;;;;3.79;100.00;99124.19;4369159;32;20475;-96
2022/12/26 06:46:03;;;;;;;31.85;15.60;;;;;;;3.80;100.00;99124.09;4369042;32;20090;-96
2022/12/26 06:48:31;;;;;;;28.60;13.82;;;;;;;3.86;100.00;99130.66;4368958;32;20459;-96
2022/12/26 06:51:04;;;;;;;25.73;13.27;;;;;;;3.71;100.00;99132.37;4356898;32;20419;-96
2022/12/26 06:53:33;;;;;;;33.50;14.95;;;;;;;3.70;100.00;99131.53;4369045;32;20110;-96
2022/12/26 06:56:06;;;;;;;28.15;13.73;;;;;;;3.90;100.00;99135.59;4369246;32;20099;-96
2022/12/26 06:58:33;;;;;;;30.20;13.25;;;;;;;4.01;100.00;99124.66;4369326;32;20116;-96
2022/12/26 07:01:06;;;;;;;35.22;15.52;;;;;;;4.12;100.00;99125.78;4368963;32;20114;-96
2022/12/26 07:03:34;;;;;;;38.67;15.85;;;;;;;4.07;100.00;99124.31;4368942;32;20173;-95
2022/12/26 07:06:06;;;;;;;38.10;16.27;;;;;;;4.06;100.00;99127.81;4369145;32;20482;-96
2022/12/26 07:08:34;;;;;;;33.20;14.80;;;;;;;4.11;100.00;99114.59;4368867;32;20129;-96
2022/12/26 07:11:02;;;;;;;32.25;15.05;;;;;;;4.04;100.00;99134.84;4368897;32;20114;-95
2022/12/26 07:13:29;;;;;;;33.15;13.65;;;;;;;4.12;100.00;99146.53;4369010;32;20172;-96
2022/12/26 07:15:59;;;;;;;29.23;15.38;;;;;;;4.19;100.00;99147.84;4368581;32;20125;-96
2022/12/26 07:18:27;;;;;;;33.20;14.38;;;;;;;4.31;100.00;99152.34;4369303;32;20105;-96
2022/12/26 07:20:54;;;;;;;31.37;14.35;;;;;;;4.55;100.00;99157.03;4356622;32;20133;-96
2022/12/26 07:23:22;;;;;;;30.75;14.65;;;;;;;4.64;100.00;99156.50;4356578;32;20165;-96
2022/12/26 07:25:49;;;;;;;30.17;14.73;;;;;;;4.82;100.00;99151.16;4369213;32;20090;-95
2022/12/26 07:28:16;;;;;;;25.10;12.95;;;;;;;4.85;100.00;99148.37;4356360;32;20106;-96
2022/12/26 07:30:48;;;;;;;32.63;15.18;;;;;;;4.97;100.00;99152.84;4380941;32;20164;-96
2022/12/26 07:33:16;;;;;;;25.83;13.55;;;;;;;5.12;100.00;99164.88;4381659;32;20214;-96
2022/12/26 07:35:43;;;;;;;31.20;15.18;;;;;;;5.24;100.00;99162.47;4356481;32;20447;-96
2022/12/26 07:38:11;;;;;;;34.08;15.75;;;;;;;5.33;100.00;99156.72;4368933;32;20487;-96
2022/12/26 07:40:38;;;;;;;30.42;16.15;;;;;;;5.49;100.00;99161.81;4356440;32;20115;-96
2022/12/26 07:43:06;;;;;;;32.05;16.37;;;;;;;5.67;100.00;99165.84;4368676;32;20435;-96
2022/12/26 07:45:33;;;;;;;31.50;15.70;;;;;;;5.72;100.00;99170.75;4380985;32;20090;-96
2022/12/26 07:48:04;;;;;;;35.25;16.80;;;;;;;5.60;100.00;99164.59;4369687;32;20439;-95
2022/12/26 07:50:32;;;;;;;33.28;17.00;;;;;;;5.65;100.00;99167.72;4368806;32;20110;-96
2022/12/26 07:52:59;;;;;;;35.92;17.55;;;;;;;5.81;100.00;99162.41;4368456;32;20149;-96
2022/12/26 07:55:27;;;;;;;34.97;16.08;;;;;;;5.95;100.00;99178.87;4356566;32;20148;-96
2022/12/26 07:57:54;;;;;;;35.70;16.90;;;;;;;5.99;100.00;99185.59;4356598;32;20098;-96
2022/12/26 08:00:21;;;;;;;33.40;16.45;;;;;;;6.09;100.00;99175.44;4351847;32;235400;-96
2022/12/26 08:02:50;;;;;;;36.42;16.85;;;;;;;6.13;100.00;99179.50;4353093;32;20137;-96
2022/12/26 08:05:19;;;;;;;42.40;18.40;;;;;;;6.27;100.00;99192.47;4356234;32;20106;-96
2022/12/26 08:07:47;;;;;;;35.58;17.15;;;;;;;6.40;100.00;99184.66;4369143;32;20128;-96
2022/12/26 08:10:16;;;;;;;35.38;17.10;;;;;;;6.51;100.00;99181.38;4368803;32;20134;-96
2022/12/26 08:12:43;;;;;;;32.13;16.80;;;;;;;6.63;100.00;99179.72;4380554;32;20115;-96
2022/12/26 08:15:11;;;;;;;32.65;17.50;;;;;;;6.71;100.00;99167.88;4356031;32;20156;-96
2022/12/26 08:17:39;;;;;;;34.28;16.35;;;;;;;6.86;100.00;99176.44;4368508;32;20086;-96
2022/12/26 08:20:07;;;;;;;33.03;16.65;;;;;;;6.95;100.00;99172.38;4356059;32;20110;-96
2022/12/26 08:22:34;;;;;;;32.33;17.02;;;;;;;7.04;100.00;99186.53;4368507;32;20464;-96
2022/12/26 08:25:04;;;;;;;34.95;17.25;;;;;;;7.17;100.00;99178.72;4356775;32;20549;-96
2022/12/26 08:27:32;;;;;;;32.22;16.73;;;;;;;7.22;100.00;99182.69;4368203;32;20106;-96
2022/12/26 08:30:00;;;;;;;40.60;18.52;;;;;;;7.31;100.00;99188.19;4355963;32;20169;-96
2022/12/26 08:32:27;;;;;;;31.35;17.45;;;;;;;7.46;100.00;99194.94;4356392;32;20115;-96
2022/12/26 08:34:55;;;;;;;34.35;17.55;;;;;;;7.57;100.00;99181.16;4356019;32;20576;-96
2022/12/26 08:37:24;;;;;;;39.53;17.60;;;;;;;7.51;100.00;99172.00;4368197;32;20113;-96
2022/12/26 08:39:52;;;;;;;33.63;17.27;;;;;;;7.63;100.00;99181.56;4356398;32;20110;-96
2022/12/26 08:42:21;;;;;;;31.70;17.00;;;;;;;7.70;100.00;99188.94;4380137;32;20545;-96
2022/12/26 08:44:48;;;;;;;33.10;17.52;;;;;;;7.87;100.00;99193.78;4355987;32;20459;-96
2022/12/26 08:47:15;;;;;;;33.47;18.65;;;;;;;8.04;100.00;99191.75;4355581;32;20368;-96
2022/12/26 08:49:43;;;;;;;32.72;17.62;;;;;;;8.23;100.00;99186.88;4355920;32;20729;-96
2022/12/26 08:52:10;;;;;;;35.25;16.77;;;;;;;8.32;100.00;99188.81;4368098;32;20487;-96
2022/12/26 08:54:37;;;;;;;35.47;18.55;;;;;;;8.39;100.00;99185.75;4355635;32;20090;-96
2022/12/26 08:57:05;;;;;;;38.97;18.45;;;;;;;8.43;100.00;99189.81;4392834;32;20112;-96
2022/12/26 08:59:32;;;;;;;34.60;17.12;;;;;;;8.35;100.00;99190.38;4368232;32;20168;-96
2022/12/26 09:02:00;;;;;;;33.75;17.37;;;;;;;8.48;100.00;99190.34;4368022;32;20135;-96
2022/12/26 09:04:27;;;;;;;35.75;17.35;;;;;;;8.73;100.00;99185.91;4368174;32;20149;-96
2022/12/26 09:06:54;;;;;;;34.15;17.90;;;;;;;8.97;100.00;99197.09;4367996;32;20098;-96
2022/12/26 09:09:22;;;;;;;39.55;19.40;;;;;;;9.03;100.00;99204.47;4355745;32;20191;-96
2022/12/26 09:11:49;;;;;;;29.08;16.58;;;;;;;9.00;100.00;99199.47;4355659;32;20149;-96
2022/12/26 09:14:17;;;;;;;31.12;15.52;;;;;;;8.99;100.00;99203.06;4368212;32;20117;-96
2022/12/26 09:16:47;;;;;;;35.42;18.35;;;;;;;9.20;100.00;99213.63;4367504;32;20140;-96
2022/12/26 09:19:18;;;;;;;35.47;18.67;;;;;;;9.23;100.00;99216.03;4368615;32;20166;-96
2022/12/26 09:21:48;;;;;;;37.30;17.87;;;;;;;9.35;100.00;99211.62;4367922;32;20106;-96
2022/12/26 09:24:16;;;;;;;34.58;17.55;;;;;;;9.39;100.00;99209.63;4367512;32;20158;-96
2022/12/26 09:26:44;;;;;;;29.20;14.73;;;;;;;9.55;100.00;99204.88;4367437;32;20141;-96
2022/12/26 09:29:12;;;;;;;24.52;13.90;;;;;;;9.59;100.00;99215.91;4355174;32;20137;-96
2022/12/26 09:31:39;;;;;;;19.70;11.68;;;;;;;9.53;100.00;99213.78;4355583;32;20141;-96
2022/12/26 09:34:07;;;;;;;21.60;12.02;;;;;;;9.65;100.00;99219.84;4355148;32;20151;-96
2022/12/26 09:36:39;;;;;;;20.27;11.25;;;;;;;9.74;100.00;99219.12;4367613;32;20481;-96
2022/12/26 09:39:07;;;;;;;17.95;10.35;;;;;;;9.93;100.00;99218.47;4355770;32;20111;-96
2022/12/26 09:41:54;;;;;;;22.05;11.12;;;;;;;10.06;100.00;99219.19;4357145;32;20118;-96
2022/12/26 09:44:26;;;;;;;13.98;8.75;;;;;;;10.15;100.00;99220.22;4381373;32;20159;-96
2022/12/26 09:47:04;;;;;;;15.82;9.98;;;;;;;10.11;100.00;99221.41;4369531;32;20120;-96
2022/12/26 09:49:35;;;;;;;19.25;10.75;;;;;;;10.13;100.00;99220.34;4369396;32;20114;-96
2022/12/26 09:52:12;;;;;;;20.98;10.75;;;;;;;10.01;100.00;99223.97;4381632;32;20106;-96
2022/12/26 09:54:42;;;;;;;21.80;11.15;;;;;;;10.16;100.00;99221.91;4357486;32;20101;-96
2022/12/26 09:57:22;;;;;;;19.73;11.77;;;;;;;10.17;100.00;99227.97;4369662;32;20116;-96
2022/12/26 10:00:01;;;;;;;21.12;10.85;;;;;;;9.97;100.00;99219.91;4369174;32;20181;-96
2022/12/26 10:02:38;;;;;;;18.98;10.02;;;;;;;9.73;100.00;99220.88;4359202;32;20140;-96
2022/12/26 10:05:06;;;;;;;21.23;12.43;;;;;;;9.78;100.00;99212.72;4369103;32;20120;-96
2022/12/26 10:07:43;;;;;;;20.17;11.45;;;;;;;9.77;100.00;99200.56;4381721;32;20094;-96
2022/12/26 10:10:15;;;;;;;24.33;13.07;;;;;;;9.90;100.00;99203.03;4369400;32;20585;-96
2022/12/26 10:13:05;;;;;;;24.48;12.80;;;;;;;9.91;100.00;99205.53;4381942;32;20249;-96
2022/12/26 10:15:48;;;;;;;21.40;12.07;;;;;;;10.13;100.00;99215.13;4382050;32;20098;-96
2022/12/26 10:18:39;;;;;;;20.40;12.02;;;;;;;10.31;100.00;99211.97;4357082;32;20094;-96
2022/12/26 10:21:26;;;;;;;22.77;12.52;;;;;;;10.32;100.00;99213.63;4369271;32;20119;-96
2022/12/26 10:24:01;;;;;;;25.45;12.95;;;;;;;10.48;100.00;99208.00;4369338;32;20070;-96
2022/12/26 10:26:32;;;;;;;20.90;12.23;;;;;;;10.51;100.00;99207.75;4381673;32;20120;-96
2022/12/26 10:29:08;;;;;;;22.83;12.65;;;;;;;10.52;100.00;99200.72;4369155;32;20717;-96
2022/12/26 10:31:41;;;;;;;22.55;12.73;;;;;;;10.58;100.00;99189.75;4381324;32;20714;-96
2022/12/26 10:34:32;;;;;;;22.33;12.55;;;;;;;10.69;100.00;99183.59;4369552;32;20479;-96
2022/12/26 10:37:03;;;;;;;18.45;11.40;;;;;;;10.78;100.00;99188.06;4369025;32;20094;-96
2022/12/26 10:39:55;;;;;;;20.40;11.18;;;;;;;10.85;100.00;99185.78;4369683;32;20159;-96
2022/12/26 10:42:33;;;;;;;19.62;10.63;;;;;;;10.72;100.00;99180.72;4368940;32;20122;-96
2022/12/26 10:45:01;;;;;;;17.92;11.80;;;;;;;10.75;100.00;99181.31;4369190;32;20110;-96
2022/12/26 10:47:31;;;;;;;19.23;10.85;;;;;;;10.57;100.00;99182.84;4381692;32;20120;-96
2022/12/26 10:49:59;;;;;;;21.10;11.68;;;;;;;10.71;100.00;99171.22;4381658;32;20148;-95
2022/12/26 10:52:31;;;;;;;19.02;11.23;;;;;;;10.59;100.00;99178.31;4367754;32;20177;-96
2022/12/26 10:54:59;;;;;;;17.20;10.15;;;;;;;10.61;100.00;99163.28;4369026;32;20106;-96
2022/12/26 10:57:50;;;;;;;20.25;11.75;;;;;;;10.58;100.00;99174.03;4361354;32;20094;-96
2022/12/26 11:00:25;;;;;;;17.27;10.00;;;;;;;10.44;100.00;99162.87;4369146;32;20081;-95
2022/12/26 11:03:04;;;;;;;17.12;9.73;;;;;;;10.54;100.00;99159.53;4368862;32;20114;-96
2022/12/26 11:05:37;;;;;;;18.02;10.82;;;;;;;10.53;100.00;99152.63;4369007;32;20111;-96
2022/12/26 11:08:28;;;;;;;19.23;11.80;;;;;;;10.49;100.00;99138.94;4373327;32;20103;-96
2022/12/26 11:11:20;;;;;;;19.37;11.07;;;;;;;10.46;100.00;99136.56;4369242;32;20121;-96
2022/12/26 11:13:58;;;;;;;22.77;11.65;;;;;;;10.47;100.00;99133.81;4375745;32;20444;-95
2022/12/26 11:16:33;;;;;;;18.27;10.80;;;;;;;10.52;100.00;99135.25;4369356;32;20140;-96
2022/12/26 11:19:01;;;;;;;18.98;11.02;;;;;;;10.51;100.00;99128.31;4368788;32;20102;-96
2022/12/26 11:21:31;;;;;;;20.05;11.15;;;;;;;10.53;100.00;99126.44;4356767;32;20119;-96
2022/12/26 11:24:07;;;;;;;19.40;11.30;;;;;;;10.58;100.00;99125.09;4369323;32;20165;-96
2022/12/26 11:26:36;;;;;;;22.87;11.07;;;;;;;10.66;100.00;99113.97;4381161;32;20111;-96
2022/12/26 11:29:06;;;;;;;19.67;11.45;;;;;;;10.71;100.00;99114.41;4368660;32;20153;-96
2022/12/26 11:31:34;;;;;;;20.85;11.55;;;;;;;10.70;100.00;99125.84;4381104;32;20086;-96
2022/12/26 11:34:07;;;;;;;20.83;11.93;;;;;;;10.69;100.00;99126.81;4356550;32;20133;-96
2022/12/26 11:36:36;;;;;;;24.85;11.27;;;;;;;10.74;100.00;99127.25;4369063;32;20115;-96
2022/12/26 11:39:06;;;;;;;24.02;12.40;;;;;;;10.81;100.00;99136.25;4369158;32;20098;-96
2022/12/26 11:41:39;;;;;;;20.27;10.88;;;;;;;10.89;100.00;99130.38;4368535;32;20098;-96
2022/12/26 11:44:39;;;;;;;18.75;10.98;;;;;;;10.93;100.00;99133.53;4369187;32;20173;-96
2022/12/26 11:47:11;;;;;;;18.35;11.10;;;;;;;10.97;100.00;99122.66;4310834;33;20107;-96
2022/12/26 11:49:44;;;;;;;20.35;11.80;;;;;;;11.14;100.00;99128.25;4323170;33;20103;-96
2022/12/26 11:52:38;;;;;;;20.73;11.63;;;;;;;11.06;100.00;99118.44;4322875;33;20286;-96
2022/12/26 11:55:21;;;;;;;19.37;11.48;;;;;;;10.89;100.00;99125.13;4335309;33;20473;-96
2022/12/26 11:58:20;;;;;;;24.67;13.38;;;;;;;11.11;100.00;99121.50;4335512;33;20110;-96
2022/12/26 12:00:53;;;;;;;21.35;13.82;;;;;;;11.16;100.00;99124.53;4335210;33;20099;-96
2022/12/26 12:03:22;;;;;;;25.50;14.38;;;;;;;11.31;100.00;99121.56;4334742;33;20404;-96
2022/12/26 12:06:00;;;;;;;23.92;14.40;;;;;;;11.23;100.00;99129.25;4335278;33;20135;-96
2022/12/26 12:08:47;;;;;;;27.70;14.32;;;;;;;11.18;100.00;99127.84;4347526;33;20127;-96
2022/12/26 12:11:29;;;;;;;28.98;14.80;;;;;;;11.23;100.00;99127.47;4347525;33;20151;-96
2022/12/26 12:14:21;;;;;;;25.33;13.35;;;;;;;11.15;100.00;99119.44;4335260;33;20115;-96
2022/12/26 12:17:03;;;;;;;25.90;14.77;;;;;;;11.06;100.00;99107.13;4303059;33;20121;-96
2022/12/26 12:19:44;;;;;;;26.83;14.07;;;;;;;10.98;100.00;99103.34;4279759;33;20128;-96
2022/12/26 12:22:29;;;;;;;26.52;14.98;;;;;;;11.04;100.00;99104.63;4291393;33;20167;-96
2022/12/26 12:25:16;;;;;;;28.60;14.98;;;;;;;10.78;100.00;99109.47;4334889;33;20091;-96
2022/12/26 12:28:13;;;;;;;23.83;13.50;;;;;;;10.92;100.00;99108.31;4324668;33;20175;-96
2022/12/26 12:30:43;;;;;;;26.77;13.20;;;;;;;11.06;100.00;99099.25;4335243;33;20703;-96
2022/12/26 12:33:12;;;;;;;20.23;12.65;;;;;;;10.91;100.00;99098.78;4323073;33;20149;-96
2022/12/26 12:35:56;;;;;;;27.73;14.27;;;;;;;10.92;100.00;99096.03;4347714;33;20483;-96
2022/12/26 12:38:29;;;;;;;23.38;12.68;;;;;;;10.95;100.00;99094.94;4322780;33;20119;-96
2022/12/26 12:40:56;;;;;;;22.60;13.07;;;;;;;10.63;100.00;99109.00;4323144;33;20554;-96
2022/12/26 12:43:30;;;;;;;23.55;13.35;;;;;;;10.77;100.00;99108.63;4346921;33;20131;-95
2022/12/26 12:46:11;;;;;;;18.75;11.82;;;;;;;10.86;100.00;99108.84;4323236;33;20091;-96
2022/12/26 12:48:48;;;;;;;20.00;12.68;;;;;;;10.97;100.00;99098.25;4334904;33;20103;-96
2022/12/26 12:51:34;;;;;;;20.83;12.30;;;;;;;10.93;100.00;99088.97;4346959;33;20139;-96
2022/12/26 12:54:25;;;;;;;23.60;12.10;;;;;;;10.88;100.00;99089.38;4371423;32;20095;-96
2022/12/26 12:57:08;;;;;;;25.37;14.38;;;;;;;11.03;100.00;99081.16;4356000;32;20101;-96
2022/12/26 12:59:52;;;;;;;22.00;12.40;;;;;;;10.97;100.00;99091.19;4368564;32;20468;-96
2022/12/26 13:02:50;;;;;;;22.08;12.55;;;;;;;11.10;100.00;99083.12;4368004;32;20102;-96
2022/12/26 13:05:40;;;;;;;21.33;12.32;;;;;;;11.17;100.00;99081.63;4377160;32;20102;-96
2022/12/26 13:08:54;;;;;;;25.10;13.68;;;;;;;11.21;100.00;99076.13;4374298;32;20087;-96
2022/12/26 13:11:29;;;;;;;23.50;12.77;;;;;;;11.24;100.00;99081.09;4334477;33;20306;-96
2022/12/26 13:14:05;;;;;;;21.85;12.57;;;;;;;11.09;100.00;99070.16;4334620;33;20111;-96
2022/12/26 13:16:42;;;;;;;26.17;14.23;;;;;;;11.00;100.00;99074.38;4336191;33;20212;-96
2022/12/26 13:19:19;;;;;;;26.55;14.10;;;;;;;11.00;100.00;99088.31;4336783;33;20531;-96
2022/12/26 13:21:47;;;;;;;21.45;13.05;;;;;;;11.00;100.00;99084.88;4336683;33;20200;-96
2022/12/26 13:24:50;;;;;;;26.95;14.85;;;;;;;10.73;100.00;99081.03;4336543;33;20511;-96
2022/12/26 13:27:21;;;;;;;34.15;16.30;;;;;;;10.56;100.00;99079.00;4304547;33;20163;-96
2022/12/26 13:29:49;;;;;;;31.52;17.45;;;;;;;10.38;100.00;99076.97;4292741;33;20092;-96
2022/12/26 13:32:20;;;;;;;30.17;15.05;;;;;;;10.44;100.00;99081.69;4292636;33;20131;-96
2022/12/26 13:34:48;;;;;;;28.62;14.82;;;;;;;10.35;100.00;99092.94;4304559;33;20187;-96
2022/12/26 13:37:31;;;;;;;30.55;15.32;;;;;;;10.16;100.00;99091.00;4292674;33;20109;-96
2022/12/26 13:40:13;;;;;;;32.78;16.42;;;;;;;10.06;100.00;99085.69;4280697;33;20116;-96
2022/12/26 13:45:56;;;;;;;30.73;16.15;;;;;;;9.68;100.00;99081.78;4328348;33;20107;-96
2022/12/26 13:48:28;;;;;;;34.15;16.92;;;;;;;9.73;100.00;99082.22;4335854;33;20154;-96
2022/12/26 13:51:00;;;;;;;32.47;16.90;;;;;;;9.53;100.00;99077.78;4336069;33;20092;-96
2022/12/26 13:53:31;;;;;;;32.70;17.27;;;;;;;9.53;100.00;99085.63;4336971;33;20150;-96
2022/12/26 13:56:09;;;;;;;39.63;19.20;;;;;;;9.55;100.00;99081.09;4336255;33;20135;-96